Twin Hills, Oklahoma
Current Conditions -  °F | °C
As of 4:35 PM on Tuesday 21 Oct 2014 (Local Time) from KOKM Reporting Station
Scattered Clouds Scattered Clouds  
Wind Chill: 80°   Ceiling: Unl
Heat Index: 81°   Visibility: 10mi
Dew Point: 62°   Wind: 5mph
Humidity: 54%   Direction: 170°S
Pressure: 30.02"   Gusts: NA
Location:  35.6454°N, 96.0285°W
Report Text: KOKM 212135Z AUTO 17004KT 10SM SCT046 27/17 A3002 RMK AO2 T02660165
Loading
Personal Weather Stations






























Interactive Weather Map
Tropical Storm Tracking
New forecast layout! Learn more

10-Day Weather Forecast

Advertisements
Track Severe Weather on mobile